Solon, IA

6:59 PM CDT on October 13, 2019 (GMT -0500)
Solon Middle School - KCRG | | Change Station
Active Advisory: Frost Advisory

Elev 801 ft 41.81 °N, 91.50 °W | Updated 32 seconds ago

Overcast
Overcast
45.7 °F
Feels Like 46 °F
N
0
Wind Variable Wind from NW
Gusts 4.0 mph

Today
High -- | Low -- °F
--% Chance of Precip.
Yesterday
High -- | Low -- °F
Precip. -- in
Pressure 29.95 in
Visibility 10.0 miles
Clouds Mostly Cloudy 6000 ft
Overcast 12000 ft
Windchill 46 °F
Dew Point 34 °F
Humidity 63%
Rainfall 0.00 in
Snow Depth Not available.
7:15 AM 6:28 PM
Full, 100% visible
METAR KIOW 132352Z AUTO 31005KT 10SM BKN060 OVC120 09/00 A2994 RMK AO2 SLP142 T00890000 10117 20089 51016
Pressure 29.95 in
Visibility 10.0 miles
Clouds Mostly Cloudy 6000 ft
Overcast 12000 ft
Windchill 46 °F
Dew Point 34 °F
Humidity 63%
Rainfall 0.00 in
Snow Depth Not available.
7:15 AM 6:28 PM
Full, 100% visible
METAR KIOW 132352Z AUTO 31005KT 10SM BKN060 OVC120 09/00 A2994 RMK AO2 SLP142 T00890000 10117 20089 51016

Get Your Daily Forecast Email!

Thanks for signing up!

Be on the lookout for a verification email in your inbox.

You'll start receiving severe weather alerts in your inbox..

×

10-Day Weather Forecast

Almanac

Astronomy

Oct. 13, 2019 Rise Set
Actual Time
Civil Twilight
Nautical Twilight
Astronomical Twilight
Moon
Length of Visible Light
Length of Day
Tomorrow will be .
, % of the Moon is Illuminated

Today's Extremes

State Highs State Lows

Community

WunderPhotos

Category 6

Welcome to Category 6. This is the collective home for Weather Underground's featured writeups by Dr. Jeff Masters (right), Bob Henson (left), Chris Burt, and other regular contributors.

Nearby

Air Quality

  Air Quality AQ Index Pollutant
Not available.

Snow Depth

Station Depth Elevation

Earthquake Activity

City Distance Mag. Time & Date
Minimum magnitude displayed is 2.5.

Coastal Water Temperatures

Place Temperature

Stations

Nearby Weather Stations

Station Location Temp. Windchill Dew Point Humidity Wind Precip. Elev Updated Type
                   

Watches & Warnings

Frost Advisory
Issued: 1:52 PM CDT Oct. 13, 2019 – National Weather Service

... Frost advisory in effect from 11 PM this evening to 9 am CDT
Monday...

* what... temperatures as low as 31 will result in frost
formation.

* Where... portions of northeast Missouri, east central and
southeast Iowa and north central, northwest and west central
Illinois.

* When... from 11 PM this evening to 9 am CDT Monday.

* Impacts... frost could kill sensitive outdoor vegetation if
left uncovered.

* Additional details... some areas will see short lived freezing
temperatures as well.

Precautionary/preparedness actions...

Take steps now to protect tender plants from the cold.